createdAt,value
2024-01-24T00:00:32.496Z,10.89
2024-01-24T00:02:58.931Z,10.91
2024-01-24T00:05:25.375Z,10.91
2024-01-24T00:07:51.777Z,10.92
2024-01-24T00:10:18.161Z,10.94
2024-01-24T00:12:44.595Z,10.94
2024-01-24T00:15:11.038Z,10.92
2024-01-24T00:17:37.480Z,10.88
2024-01-24T00:20:03.907Z,10.86
2024-01-24T00:22:30.287Z,10.86
2024-01-24T00:24:56.686Z,10.86
2024-01-24T00:27:23.135Z,10.84
2024-01-24T00:29:49.541Z,10.86
2024-01-24T00:32:15.956Z,10.90
2024-01-24T00:34:42.404Z,10.91
2024-01-24T00:37:08.945Z,10.90
2024-01-24T00:39:35.401Z,10.91
2024-01-24T00:42:01.808Z,10.88
2024-01-24T00:44:28.218Z,10.88
2024-01-24T00:46:54.617Z,10.86
2024-01-24T00:49:21.171Z,10.83
2024-01-24T00:51:47.695Z,10.82
2024-01-24T00:54:14.177Z,10.76
2024-01-24T00:56:40.578Z,10.74
2024-01-24T00:59:07.032Z,10.70
2024-01-24T01:01:33.468Z,10.65
2024-01-24T01:04:00.021Z,10.65
2024-01-24T01:06:26.532Z,10.68
2024-01-24T01:08:53.060Z,10.69
2024-01-24T01:11:19.474Z,10.69
2024-01-24T01:13:45.869Z,10.72
2024-01-24T01:16:12.297Z,10.72
2024-01-24T01:18:38.774Z,10.74
2024-01-24T01:21:05.328Z,10.75
2024-01-24T01:23:31.709Z,10.74
2024-01-24T01:25:58.103Z,10.75
2024-01-24T01:28:24.506Z,10.71
2024-01-24T01:30:50.932Z,10.71
2024-01-24T01:33:17.570Z,10.69
2024-01-24T01:35:44.086Z,10.69
2024-01-24T01:38:10.546Z,10.70
2024-01-24T01:40:36.941Z,10.69
2024-01-24T01:43:03.357Z,10.66
2024-01-24T01:45:29.772Z,10.68
2024-01-24T01:47:56.262Z,10.69
2024-01-24T01:50:22.691Z,10.69
2024-01-24T01:52:49.080Z,10.71
2024-01-24T01:55:15.576Z,10.71
2024-01-24T01:57:42.076Z,10.72
2024-01-24T02:00:08.512Z,10.72
2024-01-24T02:02:34.975Z,10.72
2024-01-24T02:05:01.421Z,10.74
2024-01-24T02:07:27.859Z,10.76
2024-01-24T02:09:54.328Z,10.76
2024-01-24T02:12:20.844Z,10.79
2024-01-24T02:14:47.277Z,10.79
2024-01-24T02:17:13.666Z,10.77
2024-01-24T02:19:40.124Z,10.78
2024-01-24T02:22:06.630Z,10.81
2024-01-24T02:24:33.077Z,10.80
2024-01-24T02:26:59.503Z,10.82
2024-01-24T02:29:25.898Z,10.83
2024-01-24T02:31:52.307Z,10.83
2024-01-24T02:34:18.815Z,10.83
2024-01-24T02:36:45.410Z,10.79
2024-01-24T02:39:11.835Z,10.71
2024-01-24T02:41:38.289Z,10.70
2024-01-24T02:44:04.765Z,10.72
2024-01-24T02:46:31.143Z,10.73
2024-01-24T02:48:57.698Z,10.72
2024-01-24T02:51:24.202Z,10.72
2024-01-24T02:53:50.690Z,10.72
2024-01-24T02:56:17.088Z,10.72
2024-01-24T02:58:43.611Z,10.69
2024-01-24T03:01:10.082Z,10.70
2024-01-24T03:03:36.711Z,10.70
2024-01-24T03:06:03.170Z,10.67
2024-01-24T03:08:29.586Z,10.60
2024-01-24T03:10:55.995Z,10.62
2024-01-24T03:13:22.446Z,10.64
2024-01-24T03:15:48.985Z,10.65
2024-01-24T03:18:15.500Z,10.66
2024-01-24T03:20:41.940Z,10.67
2024-01-24T03:23:08.335Z,10.65
2024-01-24T03:25:34.824Z,10.63
2024-01-24T03:28:01.229Z,10.63
2024-01-24T03:30:27.639Z,10.63
2024-01-24T03:32:54.113Z,10.63
2024-01-24T03:35:20.530Z,10.52
2024-01-24T03:37:46.902Z,10.47
2024-01-24T03:40:13.524Z,10.47
2024-01-24T03:42:39.974Z,10.48
2024-01-24T03:45:06.385Z,10.46
2024-01-24T03:47:32.814Z,10.50
2024-01-24T03:49:59.255Z,10.49
2024-01-24T03:52:26.636Z,10.51
2024-01-24T03:54:53.072Z,10.54
2024-01-24T03:57:19.514Z,10.54
2024-01-24T03:59:45.905Z,10.52
2024-01-24T04:02:13.449Z,10.37
2024-01-24T04:04:40.116Z,10.33
2024-01-24T04:07:06.722Z,10.33
2024-01-24T04:09:33.331Z,10.36
2024-01-24T04:11:59.744Z,10.36
2024-01-24T04:14:26.146Z,10.38
2024-01-24T04:16:52.541Z,10.40
2024-01-24T04:19:19.110Z,10.42
2024-01-24T04:21:45.684Z,10.44
2024-01-24T04:24:12.504Z,10.45
2024-01-24T04:26:38.984Z,10.43
2024-01-24T04:29:05.375Z,10.40
2024-01-24T04:31:31.861Z,10.40
2024-01-24T04:33:58.451Z,10.40
2024-01-24T04:36:25.001Z,10.34
2024-01-24T04:38:51.423Z,10.32
2024-01-24T04:41:17.806Z,10.33
2024-01-24T04:43:44.205Z,10.33
2024-01-24T04:46:10.628Z,10.37
2024-01-24T04:48:37.122Z,10.40
2024-01-24T04:51:03.641Z,10.42
2024-01-24T04:53:30.033Z,10.45
2024-01-24T04:55:56.493Z,10.46
2024-01-24T04:58:22.896Z,10.49
2024-01-24T05:00:49.438Z,10.49
2024-01-24T05:03:15.966Z,10.49
2024-01-24T05:05:42.361Z,10.49
2024-01-24T05:08:08.807Z,10.51
2024-01-24T05:10:35.194Z,10.53
2024-01-24T05:13:01.610Z,10.54
2024-01-24T05:15:28.052Z,10.56
2024-01-24T05:17:54.607Z,10.57
2024-01-24T05:20:21.040Z,10.57
2024-01-24T05:22:47.440Z,10.56
2024-01-24T05:25:13.842Z,10.57
2024-01-24T05:27:40.248Z,10.58
2024-01-24T05:30:12.367Z,10.60
2024-01-24T05:32:46.374Z,10.55
2024-01-24T05:35:12.814Z,10.56
2024-01-24T05:37:39.214Z,10.56
2024-01-24T05:40:05.643Z,10.52
2024-01-24T05:42:32.117Z,10.51
2024-01-24T05:44:58.550Z,10.49
2024-01-24T05:47:25.049Z,10.51
2024-01-24T05:49:51.560Z,10.48
2024-01-24T05:52:18.021Z,10.45
2024-01-24T05:54:44.435Z,10.44
2024-01-24T05:57:10.844Z,10.44
2024-01-24T05:59:37.250Z,10.46
2024-01-24T06:02:03.729Z,10.47
2024-01-24T06:04:30.391Z,10.46
2024-01-24T06:06:57.054Z,10.48
2024-01-24T06:09:23.521Z,10.50
2024-01-24T06:11:50.151Z,10.44
2024-01-24T06:14:16.718Z,10.33
2024-01-24T06:16:43.224Z,10.34
2024-01-24T06:19:09.727Z,10.36
2024-01-24T06:21:36.171Z,10.36
2024-01-24T06:24:02.611Z,10.31
2024-01-24T06:26:29.037Z,10.18
2024-01-24T06:28:55.500Z,10.17
2024-01-24T06:31:21.992Z,10.21
2024-01-24T06:33:48.555Z,10.22
2024-01-24T06:36:15.192Z,10.26
2024-01-24T06:38:42.795Z,10.29
2024-01-24T06:41:10.114Z,10.31
2024-01-24T06:43:36.539Z,10.31
2024-01-24T06:46:03.053Z,10.28
2024-01-24T06:48:29.551Z,10.27
2024-01-24T06:50:56.032Z,10.30
2024-01-24T06:53:22.469Z,10.34
2024-01-24T06:55:48.861Z,10.35
2024-01-24T06:58:15.239Z,10.37
2024-01-24T07:00:41.746Z,10.36
2024-01-24T07:03:08.258Z,10.36
2024-01-24T07:05:34.730Z,10.37
2024-01-24T07:08:01.096Z,10.24
2024-01-24T07:10:28.118Z,10.20
2024-01-24T07:12:54.577Z,10.22
2024-01-24T07:15:21.061Z,10.24
2024-01-24T07:17:47.853Z,10.24
2024-01-24T07:20:14.588Z,10.27
2024-01-24T07:22:41.104Z,10.20
2024-01-24T07:25:07.531Z,10.20
2024-01-24T07:27:35.784Z,10.25
2024-01-24T07:30:02.382Z,10.30
2024-01-24T07:32:28.855Z,10.39
2024-01-24T07:34:55.384Z,10.44
2024-01-24T07:37:21.828Z,10.39
2024-01-24T07:39:48.235Z,10.34
2024-01-24T07:42:15.199Z,10.34
2024-01-24T07:44:41.860Z,10.37
2024-01-24T07:47:08.481Z,10.35
2024-01-24T07:49:37.578Z,10.26
2024-01-24T07:52:05.406Z,10.33
2024-01-24T07:54:31.950Z,10.40
2024-01-24T07:56:58.988Z,10.43
2024-01-24T07:59:25.535Z,10.40
2024-01-24T08:01:51.985Z,10.47
2024-01-24T08:04:19.155Z,10.53
2024-01-24T08:06:46.080Z,10.62
2024-01-24T08:09:13.605Z,10.64
2024-01-24T08:11:40.171Z,10.67
2024-01-24T08:14:08.273Z,10.67
2024-01-24T08:16:34.729Z,10.67
2024-01-24T08:19:01.485Z,10.67
2024-01-24T08:21:27.921Z,10.67
2024-01-24T08:23:54.326Z,10.73
2024-01-24T08:26:20.778Z,10.78
2024-01-24T08:28:47.704Z,10.79
2024-01-24T08:31:14.145Z,10.82
2024-01-24T08:33:40.707Z,10.84
2024-01-24T08:36:08.027Z,10.85
2024-01-24T08:38:34.720Z,10.90
2024-01-24T08:41:01.208Z,10.90
2024-01-24T08:43:27.638Z,10.89
2024-01-24T08:45:54.060Z,10.91
2024-01-24T08:48:20.535Z,10.92
2024-01-24T08:50:46.991Z,10.85
2024-01-24T08:53:13.439Z,10.85
2024-01-24T08:55:40.042Z,10.89
2024-01-24T08:58:06.595Z,10.78
2024-01-24T09:00:33.243Z,10.79
2024-01-24T09:03:00.152Z,10.80
2024-01-24T09:05:26.607Z,10.78
2024-01-24T09:07:53.566Z,10.79
2024-01-24T09:10:20.028Z,10.78
2024-01-24T09:12:47.153Z,10.79
2024-01-24T09:15:13.832Z,10.81
2024-01-24T09:17:40.321Z,10.84
2024-01-24T09:20:06.984Z,10.86
2024-01-24T09:22:33.402Z,10.85
2024-01-24T09:25:00.499Z,10.83
2024-01-24T09:27:28.140Z,10.88
2024-01-24T09:29:54.542Z,10.95
2024-01-24T09:32:20.951Z,11.02
2024-01-24T09:34:47.507Z,11.10
2024-01-24T09:37:13.987Z,11.16
2024-01-24T09:39:40.406Z,11.16
2024-01-24T09:42:06.818Z,11.21
2024-01-24T09:44:33.217Z,11.26
2024-01-24T09:46:59.613Z,11.31
2024-01-24T09:49:26.072Z,11.36
2024-01-24T09:51:52.846Z,11.40
2024-01-24T09:54:19.743Z,11.43
2024-01-24T09:56:46.299Z,11.42
2024-01-24T09:59:12.710Z,11.43
2024-01-24T10:01:39.260Z,11.43
2024-01-24T10:04:05.848Z,11.46
2024-01-24T10:06:32.364Z,11.49
2024-01-24T10:08:58.814Z,11.53
2024-01-24T10:11:25.226Z,11.55
2024-01-24T10:13:51.651Z,11.61
2024-01-24T10:16:18.269Z,11.57
2024-01-24T10:18:44.961Z,11.52
2024-01-24T10:21:11.414Z,11.54
2024-01-24T10:23:37.895Z,11.58
2024-01-24T10:26:04.438Z,11.63
2024-01-24T10:28:30.910Z,11.68
2024-01-24T10:30:57.672Z,11.64
2024-01-24T10:33:24.389Z,11.65
2024-01-24T10:35:52.266Z,11.64
2024-01-24T10:38:20.298Z,11.62
2024-01-24T10:40:46.746Z,11.63
2024-01-24T10:43:13.173Z,11.62
2024-01-24T10:45:39.706Z,11.59
2024-01-24T10:48:06.500Z,11.58
2024-01-24T10:50:33.017Z,11.59
2024-01-24T10:52:59.426Z,11.64
2024-01-24T10:55:25.987Z,11.68
2024-01-24T10:57:52.474Z,11.73
2024-01-24T11:00:19.011Z,11.78
2024-01-24T11:02:45.539Z,11.83
2024-01-24T11:05:11.961Z,11.87
2024-01-24T11:07:38.370Z,11.93
2024-01-24T11:10:06.928Z,11.98
2024-01-24T11:12:34.807Z,12.02
2024-01-24T11:15:01.247Z,12.07
2024-01-24T11:17:27.719Z,12.08
2024-01-24T11:19:54.289Z,12.08
2024-01-24T11:22:27.036Z,12.12
2024-01-24T11:24:56.857Z,12.18
2024-01-24T11:27:23.420Z,12.23
2024-01-24T11:29:49.884Z,12.26
2024-01-24T11:32:16.612Z,12.24
2024-01-24T11:34:43.263Z,12.26
2024-01-24T11:37:10.268Z,12.27
2024-01-24T11:39:37.136Z,12.33
2024-01-24T11:42:03.837Z,12.35
2024-01-24T11:44:30.263Z,12.35
2024-01-24T11:46:56.728Z,12.39
2024-01-24T11:49:23.298Z,12.34
2024-01-24T11:51:49.799Z,12.27
2024-01-24T11:54:16.656Z,12.27
2024-01-24T11:56:43.159Z,12.34
2024-01-24T11:59:09.587Z,12.39
2024-01-24T12:01:36.998Z,12.44
2024-01-24T12:04:03.549Z,12.49
2024-01-24T12:06:30.066Z,12.53
2024-01-24T12:08:58.374Z,12.54
2024-01-24T12:11:25.030Z,12.58
2024-01-24T12:13:51.479Z,12.58
2024-01-24T12:16:17.979Z,12.60
2024-01-24T12:18:45.075Z,12.59
2024-01-24T12:21:12.214Z,12.61
2024-01-24T12:23:38.895Z,12.60
2024-01-24T12:26:05.310Z,12.60
2024-01-24T12:28:31.839Z,12.58
2024-01-24T12:30:58.337Z,12.59
2024-01-24T12:33:24.983Z,12.60
2024-01-24T12:35:52.300Z,12.63
2024-01-24T12:38:19.257Z,12.67
2024-01-24T12:40:45.773Z,12.69
2024-01-24T12:43:12.277Z,12.75
2024-01-24T12:45:40.436Z,12.77
2024-01-24T12:48:07.611Z,12.81
2024-01-24T12:50:34.202Z,12.82
2024-01-24T12:53:00.950Z,12.79
2024-01-24T12:55:27.508Z,12.81
2024-01-24T12:57:53.943Z,12.86
2024-01-24T13:00:20.427Z,12.92
2024-01-24T13:02:46.883Z,12.96
2024-01-24T13:05:13.499Z,12.99
2024-01-24T13:07:40.247Z,13.01
2024-01-24T13:10:07.380Z,13.03
2024-01-24T13:12:34.630Z,13.01
2024-01-24T13:15:01.481Z,13.04
2024-01-24T13:17:28.036Z,13.10
2024-01-24T13:19:54.688Z,13.14
2024-01-24T13:22:21.146Z,13.22
2024-01-24T13:24:47.641Z,13.27
2024-01-24T13:27:17.896Z,13.30
2024-01-24T13:29:44.338Z,13.33
2024-01-24T13:32:11.160Z,13.33
2024-01-24T13:34:40.570Z,13.26
2024-01-24T13:37:07.149Z,13.18
2024-01-24T13:39:33.894Z,13.16
2024-01-24T13:42:00.937Z,13.20
2024-01-24T13:44:27.375Z,13.21
2024-01-24T13:46:53.824Z,13.23
2024-01-24T13:49:20.328Z,13.23
2024-01-24T13:51:46.822Z,13.19
2024-01-24T13:54:13.300Z,13.15
2024-01-24T13:56:40.067Z,13.13
2024-01-24T13:59:06.566Z,13.16
2024-01-24T14:01:36.137Z,13.20
2024-01-24T14:04:07.057Z,13.05
2024-01-24T14:06:33.782Z,13.25
2024-01-24T14:09:00.437Z,13.47
2024-01-24T14:11:26.936Z,13.57
2024-01-24T14:13:56.472Z,13.72
2024-01-24T14:16:22.926Z,13.88
2024-01-24T14:18:51.944Z,13.99
2024-01-24T14:21:19.742Z,13.95
2024-01-24T14:23:46.200Z,13.97
2024-01-24T14:26:12.582Z,13.96
2024-01-24T14:28:38.983Z,13.92
2024-01-24T14:31:05.503Z,13.95
2024-01-24T14:33:34.963Z,14.04
2024-01-24T14:36:01.973Z,14.01
2024-01-24T14:38:28.397Z,14.06
2024-01-24T14:40:54.833Z,14.12
2024-01-24T14:43:21.287Z,14.14
2024-01-24T14:45:47.727Z,14.22
2024-01-24T14:48:14.310Z,14.24
2024-01-24T14:50:40.766Z,14.28
2024-01-24T14:53:07.189Z,14.45
2024-01-24T14:55:33.596Z,14.53
2024-01-24T14:58:00.005Z,14.45
2024-01-24T15:00:26.453Z,14.52
2024-01-24T15:02:52.865Z,14.60
2024-01-24T15:05:19.268Z,14.61
2024-01-24T15:07:45.878Z,14.73
2024-01-24T15:10:12.481Z,14.66
2024-01-24T15:12:39.017Z,14.68
2024-01-24T15:15:05.450Z,14.59
2024-01-24T15:17:31.895Z,14.46
2024-01-24T15:19:58.786Z,14.48
2024-01-24T15:22:25.462Z,14.42
2024-01-24T15:24:52.000Z,14.38
2024-01-24T15:27:18.444Z,14.47
2024-01-24T15:29:45.356Z,14.43
2024-01-24T15:32:11.845Z,14.53
2024-01-24T15:34:38.346Z,14.54
2024-01-24T15:37:05.185Z,14.44
2024-01-24T15:39:31.901Z,14.39
2024-01-24T15:41:58.314Z,14.51
2024-01-24T15:44:24.760Z,14.53
2024-01-24T15:46:51.148Z,14.51
2024-01-24T15:49:20.195Z,14.44
2024-01-24T15:51:46.654Z,14.38
2024-01-24T15:54:13.123Z,14.39
2024-01-24T15:56:39.589Z,14.29
2024-01-24T15:59:06.041Z,14.34
2024-01-24T16:01:32.494Z,14.33
2024-01-24T16:03:59.462Z,14.40
2024-01-24T16:06:26.124Z,14.44
2024-01-24T16:08:52.729Z,14.50
2024-01-24T16:11:19.521Z,14.47
2024-01-24T16:13:45.930Z,14.37
2024-01-24T16:16:12.417Z,14.43
2024-01-24T16:18:38.967Z,14.47
2024-01-24T16:21:05.435Z,14.42
2024-01-24T16:23:31.871Z,14.42
2024-01-24T16:25:58.257Z,14.46
2024-01-24T16:28:24.712Z,14.50
2024-01-24T16:30:51.147Z,14.51
2024-01-24T16:33:18.837Z,14.43
2024-01-24T16:35:45.307Z,14.45
2024-01-24T16:38:11.705Z,14.43
2024-01-24T16:40:38.112Z,14.42
2024-01-24T16:43:04.529Z,14.50
2024-01-24T16:45:31.038Z,14.48
2024-01-24T16:47:57.491Z,14.48
2024-01-24T16:50:23.918Z,14.48
2024-01-24T16:52:50.979Z,14.29
2024-01-24T16:55:17.564Z,14.17
2024-01-24T16:57:43.997Z,14.14
2024-01-24T17:00:10.969Z,14.29
2024-01-24T17:02:42.771Z,14.39
2024-01-24T17:05:13.082Z,14.48
2024-01-24T17:07:39.499Z,14.51
2024-01-24T17:10:06.040Z,14.48
2024-01-24T17:12:32.534Z,14.46
2024-01-24T17:14:58.961Z,14.47
2024-01-24T17:17:25.526Z,14.49
2024-01-24T17:19:52.217Z,14.48
2024-01-24T17:22:18.694Z,14.50
2024-01-24T17:24:45.182Z,14.47
2024-01-24T17:27:11.604Z,14.44
2024-01-24T17:29:38.017Z,14.40
2024-01-24T17:32:04.474Z,14.36
2024-01-24T17:34:30.989Z,14.34
2024-01-24T17:36:57.507Z,14.33
2024-01-24T17:39:25.612Z,14.32
2024-01-24T17:41:52.479Z,14.32
2024-01-24T17:44:19.000Z,14.31
2024-01-24T17:46:45.425Z,14.29
2024-01-24T17:49:12.054Z,14.30
2024-01-24T17:51:40.578Z,14.29
2024-01-24T17:54:07.056Z,14.25
2024-01-24T17:56:33.530Z,14.26
2024-01-24T17:59:00.009Z,14.25
2024-01-24T18:01:26.547Z,14.27
2024-01-24T18:03:53.193Z,14.30
2024-01-24T18:06:19.627Z,14.30
2024-01-24T18:08:46.302Z,14.29
2024-01-24T18:11:12.895Z,14.31
2024-01-24T18:13:39.296Z,14.31
2024-01-24T18:16:05.862Z,14.30
2024-01-24T18:18:32.438Z,14.31
2024-01-24T18:20:58.913Z,14.29
2024-01-24T18:23:25.321Z,14.23
2024-01-24T18:25:51.783Z,14.18
2024-01-24T18:28:18.193Z,14.16
2024-01-24T18:30:44.777Z,14.13
2024-01-24T18:33:11.405Z,14.15
2024-01-24T18:35:37.877Z,14.17
2024-01-24T18:38:04.334Z,14.17
2024-01-24T18:40:30.754Z,14.17
2024-01-24T18:42:57.191Z,14.19
2024-01-24T18:45:23.936Z,14.20
2024-01-24T18:47:50.488Z,14.19
2024-01-24T18:50:17.354Z,14.17
2024-01-24T18:52:43.833Z,14.20
2024-01-24T18:55:11.011Z,14.20
2024-01-24T18:57:37.505Z,14.20
2024-01-24T19:00:04.110Z,14.23
2024-01-24T19:02:30.699Z,14.18
2024-01-24T19:04:57.336Z,14.21
2024-01-24T19:07:23.972Z,14.23
2024-01-24T19:09:51.144Z,14.26
2024-01-24T19:12:17.667Z,14.27
2024-01-24T19:14:44.238Z,14.29
2024-01-24T19:17:10.792Z,14.31
2024-01-24T19:19:37.381Z,14.29
2024-01-24T19:22:04.164Z,14.27
2024-01-24T19:24:30.690Z,14.25
2024-01-24T19:26:57.473Z,14.18
2024-01-24T19:29:25.295Z,14.15
2024-01-24T19:31:51.748Z,14.12
2024-01-24T19:34:18.263Z,14.12
2024-01-24T19:36:44.780Z,14.14
2024-01-24T19:39:11.172Z,14.16
2024-01-24T19:41:37.574Z,14.16
2024-01-24T19:44:04.087Z,14.12
2024-01-24T19:46:30.503Z,14.03
2024-01-24T19:48:56.979Z,13.98
2024-01-24T19:51:23.519Z,13.97
2024-01-24T19:53:49.940Z,13.97
2024-01-24T19:56:16.514Z,13.95
2024-01-24T19:58:42.917Z,13.95
2024-01-24T20:01:09.429Z,13.97
2024-01-24T20:03:35.895Z,13.99
2024-01-24T20:06:02.314Z,13.96
2024-01-24T20:08:28.810Z,13.87
2024-01-24T20:10:55.247Z,13.91
2024-01-24T20:13:21.634Z,13.92
2024-01-24T20:15:48.097Z,13.93
2024-01-24T20:18:14.613Z,13.97
2024-01-24T20:20:41.264Z,14.01
2024-01-24T20:23:07.666Z,14.02
2024-01-24T20:25:34.151Z,14.00
2024-01-24T20:28:00.582Z,13.98
2024-01-24T20:30:27.030Z,13.95
2024-01-24T20:33:01.180Z,13.91
2024-01-24T20:35:31.128Z,13.87
2024-01-24T20:37:58.000Z,13.91
2024-01-24T20:40:24.397Z,13.93
2024-01-24T20:42:50.876Z,13.93
2024-01-24T20:45:17.355Z,13.89
2024-01-24T20:47:43.817Z,13.88
2024-01-24T20:50:10.305Z,13.83
2024-01-24T20:52:36.844Z,13.81
2024-01-24T20:55:03.267Z,13.77
2024-01-24T20:57:30.316Z,13.75
2024-01-24T20:59:57.042Z,13.76
2024-01-24T21:02:23.570Z,13.75
2024-01-24T21:04:50.335Z,13.74
2024-01-24T21:07:17.039Z,13.73
2024-01-24T21:09:43.537Z,13.75
2024-01-24T21:12:11.635Z,13.74
2024-01-24T21:14:39.141Z,13.77
2024-01-24T21:17:05.541Z,13.80
2024-01-24T21:19:32.072Z,13.73
2024-01-24T21:21:58.735Z,13.71
2024-01-24T21:24:25.263Z,13.69
2024-01-24T21:26:52.189Z,13.63
2024-01-24T21:29:18.570Z,13.65
2024-01-24T21:31:44.985Z,13.63
2024-01-24T21:34:11.764Z,13.63
2024-01-24T21:36:38.809Z,13.54
2024-01-24T21:39:06.657Z,13.44
2024-01-24T21:41:33.121Z,13.50
2024-01-24T21:43:59.561Z,13.56
2024-01-24T21:46:25.974Z,13.61
2024-01-24T21:48:52.405Z,13.64
2024-01-24T21:51:18.839Z,13.67
2024-01-24T21:53:45.253Z,13.72
2024-01-24T21:56:12.444Z,13.76
2024-01-24T21:58:39.761Z,13.81
2024-01-24T22:01:06.245Z,13.83
2024-01-24T22:03:32.725Z,13.83
2024-01-24T22:05:59.180Z,13.84
2024-01-24T22:08:25.743Z,13.83
2024-01-24T22:10:52.205Z,13.82
2024-01-24T22:13:18.745Z,13.79
2024-01-24T22:15:45.280Z,13.79
2024-01-24T22:18:11.849Z,13.76
2024-01-24T22:20:38.330Z,13.60
2024-01-24T22:23:04.819Z,13.53
2024-01-24T22:25:31.264Z,13.53
2024-01-24T22:27:57.764Z,13.54
2024-01-24T22:30:24.225Z,13.55
2024-01-24T22:32:50.709Z,13.56
2024-01-24T22:35:18.033Z,13.56
2024-01-24T22:37:44.508Z,13.56
2024-01-24T22:40:11.112Z,13.58
2024-01-24T22:42:37.692Z,13.61
2024-01-24T22:45:04.185Z,13.61
2024-01-24T22:47:30.800Z,13.60
2024-01-24T22:49:57.487Z,13.60
2024-01-24T22:52:24.088Z,13.60
2024-01-24T22:54:50.586Z,13.56
2024-01-24T22:57:17.326Z,13.38
2024-01-24T22:59:43.765Z,13.37
2024-01-24T23:02:10.457Z,13.36
2024-01-24T23:04:37.191Z,13.36
2024-01-24T23:07:03.785Z,13.38
2024-01-24T23:09:30.322Z,13.35
2024-01-24T23:11:56.791Z,13.41
2024-01-24T23:14:23.261Z,13.45
2024-01-24T23:16:49.725Z,13.44
2024-01-24T23:19:16.231Z,13.45
2024-01-24T23:21:42.704Z,13.47
2024-01-24T23:24:09.171Z,13.48
2024-01-24T23:26:35.614Z,13.46
2024-01-24T23:29:02.014Z,13.49
2024-01-24T23:31:28.404Z,13.52
2024-01-24T23:33:55.048Z,13.55
2024-01-24T23:36:21.536Z,13.57
2024-01-24T23:38:47.978Z,13.59
2024-01-24T23:41:14.400Z,13.61
2024-01-24T23:43:40.808Z,13.64
2024-01-24T23:46:07.261Z,13.64
2024-01-24T23:48:33.772Z,13.65
2024-01-24T23:51:00.751Z,13.59
2024-01-24T23:53:27.299Z,13.48
2024-01-24T23:55:53.713Z,13.42
2024-01-24T23:58:20.260Z,13.40
